createdAt,value
2019-05-20T00:04:36.390Z,20.6
2019-05-20T00:09:36.459Z,20.5
2019-05-20T00:14:36.374Z,20.5
2019-05-20T00:19:36.525Z,20.4
2019-05-20T00:24:36.369Z,20.3
2019-05-20T00:29:36.404Z,20.3
2019-05-20T00:34:49.124Z,20.3
2019-05-20T00:39:40.863Z,20.2
2019-05-20T00:44:36.409Z,20.1
2019-05-20T00:49:36.420Z,20.2
2019-05-20T00:54:36.346Z,20
2019-05-20T00:59:36.372Z,20
2019-05-20T01:04:36.374Z,20
2019-05-20T01:09:36.321Z,20
2019-05-20T01:14:36.334Z,19.9
2019-05-20T01:19:36.399Z,19.9
2019-05-20T01:24:36.559Z,19.8
2019-05-20T01:29:36.315Z,19.8
2019-05-20T01:34:37.599Z,19.7
2019-05-20T01:39:36.514Z,19.7
2019-05-20T01:44:37.752Z,19.7
2019-05-20T01:49:36.689Z,19.8
2019-05-20T01:54:36.440Z,19.8
2019-05-20T01:59:36.313Z,19.5
2019-05-20T02:04:36.372Z,19.4
2019-05-20T02:09:36.341Z,19.5
2019-05-20T02:14:36.422Z,19.5
2019-05-20T02:19:36.290Z,19.6
2019-05-20T02:24:36.250Z,19.8
2019-05-20T02:29:36.885Z,19.7
2019-05-20T02:34:36.321Z,20
2019-05-20T02:39:40.712Z,19.5
2019-05-20T02:44:36.318Z,19.6
2019-05-20T02:49:36.300Z,19.6
2019-05-20T02:54:36.272Z,19.7
2019-05-20T02:59:37.979Z,20
2019-05-20T03:04:36.230Z,19.7
2019-05-20T03:09:36.265Z,19.7
2019-05-20T03:14:36.347Z,20.1
2019-05-20T03:19:36.247Z,19.8
2019-05-20T03:24:36.323Z,19.7
2019-05-20T03:29:36.256Z,19.8
2019-05-20T03:35:12.682Z,19.9
2019-05-20T03:39:36.258Z,19.9
2019-05-20T03:44:36.235Z,19.6
2019-05-20T03:49:36.240Z,19.5
2019-05-20T03:54:36.275Z,19.5
2019-05-20T03:59:36.250Z,19.8
2019-05-20T04:04:39.644Z,19.8
2019-05-20T04:09:36.361Z,19.9
2019-05-20T04:14:41.971Z,19.9
2019-05-20T04:19:36.198Z,19.9
2019-05-20T04:24:36.424Z,20
2019-05-20T04:29:36.239Z,20.3
2019-05-20T04:34:36.201Z,20.1
2019-05-20T04:39:36.233Z,20.2
2019-05-20T04:44:36.270Z,20.6
2019-05-20T04:49:37.824Z,20.2
2019-05-20T04:54:36.475Z,20.6
2019-05-20T04:59:36.377Z,20.8
2019-05-20T05:04:36.188Z,21.1
2019-05-20T05:09:38.810Z,21
2019-05-20T05:14:38.801Z,21
2019-05-20T05:19:38.907Z,21.3
2019-05-20T05:24:38.786Z,21
2019-05-20T05:29:38.906Z,21.4
2019-05-20T05:34:38.757Z,22
2019-05-20T05:39:38.729Z,21.7
2019-05-20T05:44:38.751Z,21.7
2019-05-20T05:49:38.749Z,21.8
2019-05-20T05:54:38.734Z,22.1
2019-05-20T05:59:38.740Z,22.1
2019-05-20T06:04:38.724Z,22.7
2019-05-20T06:09:38.686Z,22.4
2019-05-20T06:14:38.862Z,22.6
2019-05-20T06:19:38.713Z,22.8
2019-05-20T06:24:38.674Z,23
2019-05-20T06:29:38.756Z,23.5
2019-05-20T06:34:41.687Z,23.6
2019-05-20T06:39:38.710Z,23.3
2019-05-20T06:44:51.590Z,24
2019-05-20T06:49:38.976Z,24.2
2019-05-20T06:54:38.956Z,24.1
2019-05-20T06:59:38.927Z,24.2
2019-05-20T07:04:38.943Z,24.3
2019-05-20T07:09:38.963Z,24.3
2019-05-20T07:14:38.926Z,24.3
2019-05-20T07:19:43.210Z,24.7
2019-05-20T07:24:38.942Z,24.3
2019-05-20T07:29:38.925Z,24.9
2019-05-20T07:34:40.392Z,24.8
2019-05-20T07:39:44.460Z,24.8
2019-05-20T07:44:44.426Z,25.1
2019-05-20T07:49:44.837Z,25.2
2019-05-20T07:54:44.682Z,25.3
2019-05-20T07:59:45.459Z,25.2
2019-05-20T08:04:44.882Z,25.8
2019-05-20T08:09:53.595Z,26
2019-05-20T08:14:44.533Z,25.5
2019-05-20T08:19:44.510Z,25.9
2019-05-20T08:24:44.456Z,26
2019-05-20T08:29:44.341Z,25.9
2019-05-20T08:34:46.886Z,26.1
2019-05-20T08:39:44.359Z,25.7
2019-05-20T08:44:44.887Z,25.8
2019-05-20T08:49:45.690Z,26.4
2019-05-20T08:54:48.651Z,26.1
2019-05-20T08:59:44.298Z,26.3
2019-05-20T09:04:44.444Z,26.4
2019-05-20T09:09:44.801Z,26.7
2019-05-20T09:14:46.900Z,26.4
2019-05-20T09:19:46.993Z,27.5
2019-05-20T09:24:46.183Z,28.2
2019-05-20T09:29:46.545Z,28.1
2019-05-20T09:34:44.525Z,29.1
2019-05-20T09:39:44.381Z,27.9
2019-05-20T09:44:44.356Z,27.6
2019-05-20T09:49:44.515Z,28.3
2019-05-20T09:54:45.597Z,28.1
2019-05-20T09:59:57.197Z,29.1
2019-05-20T10:04:44.378Z,29.1
2019-05-20T10:09:44.270Z,29.6
2019-05-20T10:14:44.264Z,28.3
2019-05-20T10:19:44.299Z,29.9
2019-05-20T10:24:44.370Z,29.2
2019-05-20T10:29:44.231Z,28.7
2019-05-20T10:34:47.648Z,30.9
2019-05-20T10:39:44.254Z,30.4
2019-05-20T10:44:48.263Z,29.6
2019-05-20T10:49:44.355Z,30.1
2019-05-20T10:54:44.268Z,29.3
2019-05-20T10:59:44.266Z,29.9
2019-05-20T11:04:48.095Z,30.1
2019-05-20T11:09:44.249Z,29.7
2019-05-20T11:14:44.362Z,29.7
2019-05-20T11:19:44.395Z,29.9
2019-05-20T11:24:44.212Z,29.5
2019-05-20T11:29:44.271Z,29.6
2019-05-20T11:34:44.750Z,29.6
2019-05-20T11:39:48.481Z,30.3
2019-05-20T11:44:44.210Z,30.8
2019-05-20T11:49:44.306Z,32.5
2019-05-20T11:54:44.264Z,32.1
2019-05-20T11:59:44.203Z,31.5
2019-05-20T12:04:44.225Z,31.7
2019-05-20T12:10:00.883Z,31.3
2019-05-20T12:14:44.207Z,31.2
2019-05-20T12:19:44.210Z,31.3
2019-05-20T12:24:44.276Z,31.9
2019-05-20T12:29:44.191Z,31.5
2019-05-20T12:34:44.185Z,32.6
2019-05-20T12:39:44.300Z,31.1
2019-05-20T12:44:44.175Z,30.8
2019-05-20T12:49:44.896Z,32.7
2019-05-20T12:54:44.124Z,32.1
2019-05-20T12:59:44.193Z,32.8
2019-05-20T13:04:44.138Z,31.3
2019-05-20T13:09:44.173Z,30.8
2019-05-20T13:14:44.206Z,31.1
2019-05-20T13:19:44.144Z,31.5
2019-05-20T13:20:23.817Z,32.2
2019-05-20T13:25:24.086Z,33
2019-05-20T13:30:24.362Z,33.3
2019-05-20T13:35:23.798Z,32
2019-05-20T13:40:23.919Z,32.8
2019-05-20T13:45:25.098Z,32.1
2019-05-20T13:50:24.177Z,32.1
2019-05-20T13:55:25.056Z,30.8
2019-05-20T14:00:24.044Z,29.5
2019-05-20T14:05:23.725Z,28.8
2019-05-20T14:10:23.770Z,29.8
2019-05-20T14:15:23.870Z,28.9
2019-05-20T14:20:23.846Z,28.6
2019-05-20T14:25:23.797Z,28.5
2019-05-20T14:30:23.773Z,28.2
2019-05-20T14:35:23.876Z,27.8
2019-05-20T14:40:23.882Z,28.4
2019-05-20T14:45:23.699Z,28
2019-05-20T14:50:23.740Z,27.7
2019-05-20T14:55:23.869Z,27.7
2019-05-20T15:00:23.899Z,27.7
2019-05-20T15:05:23.975Z,27.8
2019-05-20T15:10:24.054Z,27.2
2019-05-20T15:15:23.868Z,27.1
2019-05-20T15:20:23.664Z,27.2
2019-05-20T15:25:24.119Z,27.3
2019-05-20T15:30:24.018Z,27.6
2019-05-20T15:35:23.681Z,29.6
2019-05-20T15:40:24.468Z,29.6
2019-05-20T15:45:24.497Z,29.5
2019-05-20T15:50:25.361Z,29.4
2019-05-20T15:55:23.686Z,29.6
2019-05-20T16:00:23.798Z,29.8
2019-05-20T16:05:23.641Z,29.7
2019-05-20T16:10:23.659Z,27.8
2019-05-20T16:15:23.692Z,28.2
2019-05-20T16:20:23.734Z,28
2019-05-20T16:25:23.731Z,28
2019-05-20T16:35:23.617Z,27.2
2019-05-20T16:40:24.650Z,26.6
2019-05-20T16:45:26.948Z,26.4
2019-05-20T16:50:24.696Z,26.4
2019-05-20T16:55:29.236Z,26.2
2019-05-20T17:00:46.560Z,26
2019-05-20T17:05:33.227Z,26
2019-05-20T17:10:33.978Z,26
2019-05-20T17:15:34.193Z,25.8
2019-05-20T17:20:33.983Z,25.7
2019-05-20T17:23:09.245Z,25.6
2019-05-20T17:32:08.594Z,25.6
2019-05-20T17:37:08.578Z,25.4
2019-05-20T17:42:08.656Z,25.4
2019-05-20T17:47:08.665Z,25.4
2019-05-20T17:52:08.714Z,25.2
2019-05-20T17:57:08.624Z,25.2
2019-05-20T18:02:08.620Z,25.2
2019-05-20T18:07:08.562Z,25
2019-05-20T18:12:08.663Z,25
2019-05-20T18:17:08.613Z,24.9
2019-05-20T18:22:15.699Z,24.9
2019-05-20T18:27:12.678Z,24.9
2019-05-20T18:37:08.533Z,24.7
2019-05-20T18:42:12.676Z,24.7
2019-05-20T18:52:08.525Z,24.5
2019-05-20T19:02:20.368Z,24.3
2019-05-20T19:37:13.893Z,24
2019-05-20T19:42:09.467Z,24
2019-05-20T19:47:09.749Z,23.9
2019-05-20T19:52:09.554Z,23.8
2019-05-20T19:57:09.789Z,23.9
2019-05-20T20:07:10.257Z,23.7
2019-05-20T20:12:10.168Z,23.6
2019-05-20T20:17:11.719Z,23.6
2019-05-20T20:22:11.737Z,23.5
2019-05-20T20:27:11.739Z,23.6
2019-05-20T20:32:11.782Z,23.5
2019-05-20T20:37:10.185Z,23.4
2019-05-20T20:42:10.218Z,23.4
2019-05-20T20:47:10.213Z,23.3
2019-05-20T20:52:10.168Z,23.2
2019-05-20T20:57:10.239Z,23.2
2019-05-20T21:02:13.538Z,23.2
2019-05-20T21:07:10.178Z,23
2019-05-20T21:12:10.212Z,23
2019-05-20T21:17:10.649Z,22.9
2019-05-20T21:22:10.134Z,22.8
2019-05-20T21:27:10.155Z,22.8
2019-05-20T21:32:10.197Z,22.8
2019-05-20T21:37:10.133Z,22.6
2019-05-20T21:42:10.202Z,22.6
2019-05-20T21:47:10.270Z,22.6
2019-05-20T21:52:10.240Z,22.5
2019-05-20T21:57:10.044Z,22.4
2019-05-20T22:02:10.133Z,22.4
2019-05-20T22:07:10.081Z,22.3
2019-05-20T22:12:10.219Z,22.3
2019-05-20T22:17:10.083Z,22.2
2019-05-20T22:22:10.086Z,22.2
2019-05-20T22:27:15.837Z,22.2
2019-05-20T22:32:15.762Z,22.1
2019-05-20T22:37:15.766Z,21.9
2019-05-20T22:42:15.903Z,21.8
2019-05-20T22:47:15.723Z,21.8
2019-05-20T22:52:15.797Z,21.9
2019-05-20T22:57:15.796Z,21.7
2019-05-20T23:02:15.766Z,21.5
2019-05-20T23:07:15.762Z,21.5
2019-05-20T23:12:16.504Z,21.5
2019-05-20T23:17:16.478Z,21.3
2019-05-20T23:22:16.524Z,21.1
2019-05-20T23:27:16.510Z,21.1
2019-05-20T23:32:16.461Z,21
2019-05-20T23:37:16.491Z,21
2019-05-20T23:42:16.573Z,20.9
2019-05-20T23:47:16.527Z,20.9
2019-05-20T23:52:16.449Z,20.7
2019-05-20T23:57:16.459Z,20.6
